Time;durP1;ratioP1;P1;durP2;ratioP2;P2;SDS_P1;SDS_P2;PMS_P1;PMS_P2;Temp;Humidity;BMP_temperature;BMP_pressure;BME280_temperature;BME280_humidity;BME280_pressure;Samples;Min_cycle;Max_cycle;Signal;HPM_P1;HPM_P2
2021/04/01 00:00:16;;;;;;;37.85;26.65;;;;;;;11.32;72.33;99748.20;1729950;82;21198;-41
2021/04/01 00:02:51;;;;;;;40.20;27.45;;;;;;;11.35;72.22;99742.05;1711355;83;21174;-40
2021/04/01 00:05:23;;;;;;;37.75;27.52;;;;;;;11.37;72.06;99737.08;1738134;82;21157;-41
2021/04/01 00:07:51;;;;;;;38.67;26.50;;;;;;;11.34;71.93;99740.48;1737784;82;21149;-41
2021/04/01 00:10:20;;;;;;;33.45;24.87;;;;;;;11.27;71.85;99732.20;1739155;81;21129;-41
2021/04/01 00:12:48;;;;;;;33.78;25.90;;;;;;;11.23;71.81;99734.81;1756905;81;22213;-41
2021/04/01 00:15:18;;;;;;;35.15;26.52;;;;;;;11.27;71.64;99724.05;1759466;81;21052;-41
2021/04/01 00:17:46;;;;;;;35.65;26.45;;;;;;;11.24;71.60;99726.10;1756512;81;21018;-41
2021/04/01 00:20:15;;;;;;;39.90;28.42;;;;;;;11.19;71.70;99723.09;1756399;81;21218;-41
2021/04/01 00:22:43;;;;;;;39.40;27.30;;;;;;;11.21;71.77;99725.47;1756756;81;21153;-41
2021/04/01 00:25:16;;;;;;;36.70;26.12;;;;;;;11.19;71.75;99720.38;1759436;81;21009;-40
2021/04/01 00:27:45;;;;;;;32.30;25.85;;;;;;;11.21;71.67;99714.61;1756526;81;21765;-41
2021/04/01 00:30:14;;;;;;;33.30;25.90;;;;;;;11.21;71.62;99708.61;1756391;81;21155;-41
2021/04/01 00:32:43;;;;;;;36.70;26.93;;;;;;;11.23;71.60;99710.98;1756755;81;21018;-41
2021/04/01 00:35:12;;;;;;;36.42;27.15;;;;;;;11.24;71.55;99701.67;1756507;81;21415;-41
2021/04/01 00:37:40;;;;;;;37.35;26.93;;;;;;;11.19;71.57;99700.59;1756610;81;21210;-41
2021/04/01 00:40:11;;;;;;;34.30;25.05;;;;;;;11.14;71.76;99702.23;1756515;81;21193;-41
2021/04/01 00:42:39;;;;;;;32.33;25.12;;;;;;;11.15;71.84;99694.31;1756558;81;21371;-41
2021/04/01 00:45:09;;;;;;;32.10;25.27;;;;;;;11.22;71.71;99691.77;1783798;80;21929;-41
2021/04/01 00:47:40;;;;;;;35.48;27.40;;;;;;;11.31;71.49;99690.98;1754784;81;21638;-41
2021/04/01 00:50:12;;;;;;;35.63;27.42;;;;;;;11.28;71.47;99690.32;1756745;81;21275;-41
2021/04/01 00:52:41;;;;;;;41.08;27.70;;;;;;;11.30;71.37;99685.34;1756733;81;21140;-41
2021/04/01 00:55:10;;;;;;;36.60;26.27;;;;;;;11.27;71.30;99684.70;1756754;81;21105;-41
2021/04/01 00:57:41;;;;;;;35.10;25.52;;;;;;;11.27;71.18;99684.13;1733984;81;21188;-41
2021/04/01 01:00:12;;;;;;;35.33;25.48;;;;;;;11.26;71.18;99677.69;1772103;81;21135;-41
2021/04/01 01:02:40;;;;;;;36.15;26.33;;;;;;;11.26;71.14;99678.48;1722813;83;21217;-41
2021/04/01 01:05:11;;;;;;;37.55;27.93;;;;;;;11.26;71.21;99674.98;1771933;81;21167;-41
2021/04/01 01:07:39;;;;;;;35.98;27.02;;;;;;;11.30;71.09;99673.13;1772130;80;21234;-41
2021/04/01 01:10:15;;;;;;;35.92;27.32;;;;;;;11.32;70.98;99669.49;1757714;80;21143;-41
2021/04/01 01:12:42;;;;;;;34.43;26.17;;;;;;;11.30;70.82;99668.48;1746229;81;21154;-41
2021/04/01 01:15:13;;;;;;;33.50;26.05;;;;;;;11.30;70.72;99664.98;1747742;82;21216;-41
2021/04/01 01:17:41;;;;;;;32.03;24.92;;;;;;;11.27;70.59;99660.27;1748454;82;21947;-41
2021/04/01 01:20:12;;;;;;;38.38;26.75;;;;;;;11.21;70.75;99658.41;1748448;81;21014;-41
2021/04/01 01:22:41;;;;;;;35.10;27.13;;;;;;;11.11;70.96;99653.54;1743616;82;21623;-41
2021/04/01 01:25:11;;;;;;;36.93;26.93;;;;;;;11.05;71.12;99652.24;1712867;82;21191;-41
2021/04/01 01:27:39;;;;;;;35.73;25.70;;;;;;;11.01;71.27;99651.38;1799321;79;21195;-41
2021/04/01 01:30:14;;;;;;;33.18;25.25;;;;;;;11.03;71.29;99646.97;1745151;82;21048;-41
2021/04/01 01:32:45;;;;;;;33.42;25.52;;;;;;;11.05;71.12;99651.45;1813977;79;21110;-40
2021/04/01 01:35:19;;;;;;;34.23;25.80;;;;;;;11.05;71.20;99643.31;1815053;79;21356;-40
2021/04/01 01:38:06;;;;;;;35.30;27.10;;;;;;;11.01;71.31;99642.45;1814870;79;21607;-40
2021/04/01 01:40:35;;;;;;;38.60;27.35;;;;;;;10.99;71.34;99638.73;1815105;79;22199;-40
2021/04/01 01:43:06;;;;;;;40.20;27.85;;;;;;;10.97;71.32;99632.89;1812700;79;21166;-40
2021/04/01 01:45:34;;;;;;;34.40;24.05;;;;;;;10.93;71.31;99635.31;1783315;79;21228;-40
2021/04/01 01:48:03;;;;;;;32.33;23.25;;;;;;;10.92;71.33;99626.95;1797489;79;21159;-40
2021/04/01 01:50:33;;;;;;;33.30;25.80;;;;;;;10.94;71.28;99624.09;1748311;82;21170;-40
2021/04/01 01:53:01;;;;;;;31.52;25.25;;;;;;;10.96;71.27;99622.39;1815312;79;21374;-40
2021/04/01 01:55:29;;;;;;;36.35;25.08;;;;;;;10.91;71.33;99612.60;1748038;82;21417;-40
2021/04/01 01:57:59;;;;;;;;;;;;;;;10.83;71.54;99621.17;1750986;82;21052;-40
2021/04/01 02:00:35;;;;;;;36.50;25.97;;;;;;;10.73;71.74;99616.86;1740153;82;20579;-40
2021/04/01 02:03:05;;;;;;;36.90;24.75;;;;;;;10.52;72.38;99615.80;1759222;81;21621;-40
2021/04/01 02:05:34;;;;;;;37.03;24.77;;;;;;;10.43;72.69;99616.56;1748321;82;21369;-40
2021/04/01 02:08:05;;;;;;;34.63;24.77;;;;;;;10.46;72.78;99615.28;1815033;79;21035;-40
2021/04/01 02:10:44;;;;;;;32.80;23.50;;;;;;;10.47;72.78;99613.36;1748505;82;21666;-40
2021/04/01 02:13:19;;;;;;;36.25;25.72;;;;;;;10.43;72.97;99612.50;1748156;82;21055;-40
2021/04/01 02:15:51;;;;;;;32.78;24.82;;;;;;;10.38;73.06;99604.63;1815193;79;21154;-40
2021/04/01 02:18:23;;;;;;;34.15;24.72;;;;;;;10.37;73.07;99606.55;1815087;79;21207;-40
2021/04/01 02:20:52;;;;;;;30.68;23.32;;;;;;;10.37;73.11;99598.98;1750812;81;21179;-40
2021/04/01 02:23:29;;;;;;;31.07;23.85;;;;;;;10.41;72.91;99602.56;1750762;81;21139;-40
2021/04/01 02:25:58;;;;;;;34.63;24.37;;;;;;;10.46;72.78;99600.94;1814467;79;21189;-40
2021/04/01 02:28:28;;;;;;;31.55;24.02;;;;;;;10.47;72.72;99606.58;1814986;79;21158;-40
2021/04/01 02:31:00;;;;;;;36.28;26.42;;;;;;;10.44;72.66;99599.95;1748357;82;21208;-40
2021/04/01 02:33:30;;;;;;;32.73;23.27;;;;;;;10.39;72.71;99595.38;1815038;79;21123;-40
2021/04/01 02:35:58;;;;;;;32.25;24.67;;;;;;;10.38;72.83;99602.72;1815224;79;21058;-40
2021/04/01 02:38:26;;;;;;;35.43;26.77;;;;;;;10.44;72.74;99597.81;1747868;81;21582;-40
2021/04/01 02:40:56;;;;;;;34.77;24.33;;;;;;;10.48;72.68;99598.67;1803130;79;21134;-40
2021/04/01 02:46:07;;;;;;;35.28;25.02;;;;;;;10.46;72.53;99591.45;1808473;78;22345;-40
2021/04/01 02:48:36;;;;;;;30.27;24.23;;;;;;;10.37;72.53;99593.57;1806180;78;21020;-40
2021/04/01 02:51:06;;;;;;;32.78;24.50;;;;;;;10.35;72.40;99589.09;1783540;80;21344;-40
2021/04/01 02:53:34;;;;;;;33.83;25.50;;;;;;;10.34;72.44;99589.66;1788118;79;21051;-40
2021/04/01 02:56:02;;;;;;;34.85;25.55;;;;;;;10.33;72.41;99589.99;1795056;79;21043;-40
2021/04/01 02:58:30;;;;;;;34.65;25.55;;;;;;;10.31;72.41;99584.16;1815651;79;21051;-40
2021/04/01 03:00:58;;;;;;;34.18;25.57;;;;;;;10.25;72.48;99587.70;1815934;79;21007;-40
2021/04/01 03:03:42;;;;;;;35.30;25.80;;;;;;;10.18;72.58;99590.80;1815929;79;23151;-40
2021/04/01 03:06:05;;;;;;;31.33;24.37;;;;;;;10.13;72.63;99593.17;1808843;79;21155;-40
2021/04/01 03:08:33;;;;;;;33.05;25.17;;;;;;;10.17;72.65;99595.42;1815870;79;21633;-40
2021/04/01 03:11:03;;;;;;;34.92;26.95;;;;;;;10.19;72.64;99593.73;1815976;79;21003;-40
2021/04/01 03:13:31;;;;;;;37.53;27.35;;;;;;;10.21;72.69;99591.47;1815780;79;21167;-40
2021/04/01 03:15:59;;;;;;;36.93;27.13;;;;;;;10.18;72.81;99589.44;1815916;79;21267;-40
2021/04/01 03:18:28;;;;;;;34.03;25.23;;;;;;;10.18;72.91;99588.08;1815724;79;21024;-40
2021/04/01 03:20:57;;;;;;;32.85;24.87;;;;;;;10.22;72.74;99584.31;1815834;79;21609;-40
2021/04/01 03:23:26;;;;;;;39.00;26.23;;;;;;;10.30;72.58;99579.88;1815785;79;21145;-40
2021/04/01 03:25:54;;;;;;;38.55;27.30;;;;;;;10.32;72.56;99585.14;1812107;79;21153;-40
2021/04/01 03:28:22;;;;;;;37.45;27.55;;;;;;;10.27;72.67;99582.70;1785027;79;21342;-40
2021/04/01 03:31:01;;;;;;;37.93;29.00;;;;;;;10.21;72.88;99580.06;1766990;80;21589;-40
2021/04/01 03:33:23;;;;;;;35.38;26.33;;;;;;;10.17;72.94;99575.67;1747495;82;21629;-40
2021/04/01 03:35:51;;;;;;;33.90;24.15;;;;;;;10.16;72.99;99580.33;1708518;84;21180;-40
2021/04/01 03:38:20;;;;;;;36.75;26.93;;;;;;;10.17;72.96;99579.73;1748905;82;21636;-40
2021/04/01 03:40:51;;;;;;;36.28;27.02;;;;;;;10.11;73.10;99570.29;1708519;84;21500;-40
2021/04/01 03:43:19;;;;;;;37.80;27.05;;;;;;;10.02;73.30;99575.30;1748848;80;21193;-40
2021/04/01 03:45:47;;;;;;;37.45;26.90;;;;;;;9.97;73.39;99575.56;1753664;81;21175;-40
2021/04/01 03:48:16;;;;;;;34.55;25.82;;;;;;;9.93;73.49;99578.75;1736124;81;21170;-40
2021/04/01 03:50:44;;;;;;;34.60;25.12;;;;;;;9.96;73.37;99574.02;1726945;83;21178;-40
2021/04/01 03:53:12;;;;;;;37.25;27.98;;;;;;;10.03;73.14;99577.44;1757188;81;21337;-40
2021/04/01 03:55:41;;;;;;;38.65;28.42;;;;;;;10.05;73.04;99575.18;1788277;80;20984;-40
2021/04/01 04:09:25;;;;;;;42.17;29.98;;;;;;;9.78;74.08;99563.88;1756869;81;21178;-40
2021/04/01 04:11:40;;;;;;;43.30;29.67;;;;;;;9.77;74.44;99563.66;1752994;81;21186;-40
2021/04/01 04:16:33;;;;;;;37.73;28.15;;;;;;;9.66;74.93;99558.53;1756708;81;21138;-40
2021/04/01 04:19:03;;;;;;;42.95;29.25;;;;;;;9.67;75.05;99555.48;1759289;80;22218;-40
2021/04/01 04:21:31;;;;;;;39.48;27.98;;;;;;;9.71;75.12;99556.36;1756835;81;21629;-40
2021/04/01 04:24:01;;;;;;;36.45;28.30;;;;;;;9.75;75.20;99551.81;1756082;81;21182;-40
2021/04/01 04:26:29;;;;;;;44.87;31.50;;;;;;;9.78;75.26;99556.52;1755466;81;21126;-40
2021/04/01 04:28:57;;;;;;;41.70;28.40;;;;;;;9.78;75.33;99552.45;1788085;80;21451;-40
2021/04/01 04:31:25;;;;;;;40.35;30.55;;;;;;;9.82;75.29;99550.64;1756705;81;21374;-40
2021/04/01 04:33:53;;;;;;;41.92;28.87;;;;;;;9.86;75.29;99546.09;1724518;81;21435;-40
2021/04/01 04:36:21;;;;;;;39.48;29.80;;;;;;;9.89;75.41;99553.52;1772476;81;21118;-40
2021/04/01 04:38:49;;;;;;;40.60;30.57;;;;;;;9.90;75.64;99552.38;1756656;81;21194;-40
2021/04/01 04:41:17;;;;;;;39.73;28.32;;;;;;;9.90;75.75;99551.59;1772457;81;21438;-40
2021/04/01 04:43:45;;;;;;;37.60;27.45;;;;;;;9.92;75.93;99552.80;1768226;80;21378;-40
2021/04/01 04:46:13;;;;;;;41.55;29.32;;;;;;;9.98;75.85;99537.87;1751196;80;21190;-40
2021/04/01 04:48:41;;;;;;;42.50;29.77;;;;;;;10.09;75.78;99538.69;1783282;80;21162;-40
2021/04/01 04:51:09;;;;;;;41.00;29.65;;;;;;;10.15;75.78;99535.94;1783240;80;21460;-40
2021/04/01 04:53:37;;;;;;;38.20;28.25;;;;;;;10.20;75.78;99540.55;1783117;80;21179;-40
2021/04/01 04:56:13;;;;;;;39.60;28.38;;;;;;;10.26;75.72;99532.94;1783216;80;21434;-40
2021/04/01 04:58:53;;;;;;;40.05;28.52;;;;;;;10.34;75.67;99540.88;1795865;79;21205;-40
2021/04/01 05:06:53;;;;;;;34.65;27.22;;;;;;;10.46;75.79;99532.61;1815255;79;21138;-40
2021/04/01 05:09:09;;;;;;;36.33;27.07;;;;;;;10.47;75.98;99533.40;1779241;80;21198;-40
2021/04/01 05:11:37;;;;;;;37.80;27.73;;;;;;;10.54;75.93;99534.92;1815728;78;21596;-40
2021/04/01 05:14:05;;;;;;;40.12;28.57;;;;;;;10.58;75.83;99531.72;1779273;80;21157;-40
2021/04/01 05:16:34;;;;;;;36.73;27.13;;;;;;;10.59;75.85;99534.64;1815215;79;21609;-40
2021/04/01 05:19:05;;;;;;;35.08;25.17;;;;;;;10.59;75.88;99530.58;1776069;80;21171;-40
2021/04/01 05:24:20;;;;;;;33.93;29.17;;;;;;;10.79;75.64;99528.11;1792811;78;27994;-40
2021/04/01 05:29:18;;;;;;;33.18;25.88;;;;;;;11.35;73.69;99523.55;1787240;80;21376;-40
2021/04/01 05:31:49;;;;;;;33.28;24.87;;;;;;;11.26;73.92;99527.86;1787360;80;20988;-40
2021/04/01 05:34:18;;;;;;;34.67;26.45;;;;;;;11.27;73.75;99519.14;1787329;80;21040;-40
2021/04/01 05:36:49;;;;;;;35.08;26.42;;;;;;;11.25;73.85;99517.34;1787338;80;21016;-40
2021/04/01 05:39:19;;;;;;;34.55;25.68;;;;;;;11.23;73.87;99512.87;1787044;80;20972;-41
2021/04/01 05:41:52;;;;;;;33.55;24.27;;;;;;;11.24;73.93;99514.42;1787249;80;21379;-41
2021/04/01 05:47:10;;;;;;;32.65;25.23;;;;;;;11.38;73.87;99516.03;1809729;78;22676;-40
2021/04/01 05:58:15;;;;;;;32.38;25.15;;;;;;;11.44;73.65;99511.88;1780130;80;21545;-40
2021/04/01 06:03:35;;;;;;;32.58;24.55;;;;;;;11.49;73.03;99506.16;1780089;80;20992;-40
2021/04/01 06:06:10;;;;;;;34.10;24.30;;;;;;;11.60;72.75;99503.06;1840968;78;22678;-40
2021/04/01 06:08:44;;;;;;;35.13;24.72;;;;;;;11.63;72.38;99503.68;1816024;79;20984;-40
2021/04/01 06:11:11;;;;;;;32.30;23.55;;;;;;;11.66;72.35;99500.26;1815946;79;21359;-41
2021/04/01 06:14:02;;;;;;;31.20;22.20;;;;;;;11.70;72.34;99497.59;1813085;78;21076;-40
2021/04/01 06:16:18;;;;;;;28.50;23.00;;;;;;;11.77;71.77;99493.65;1798450;79;20953;-40
2021/04/01 06:18:54;;;;;;;30.35;23.40;;;;;;;11.84;71.71;99484.84;1797289;79;21012;-40
2021/04/01 06:21:26;;;;;;;30.77;24.75;;;;;;;11.83;71.37;99491.41;1797257;79;21025;-40
2021/04/01 06:24:06;;;;;;;30.62;23.05;;;;;;;11.84;71.83;99485.63;1809926;78;21132;-41
2021/04/01 06:26:26;;;;;;;29.77;22.07;;;;;;;11.92;71.67;99487.87;1803057;79;21036;-40
2021/04/01 06:28:59;;;;;;;31.50;24.05;;;;;;;12.06;71.28;99491.58;1737346;82;21028;-41
2021/04/01 06:31:28;;;;;;;31.10;23.32;;;;;;;12.13;70.74;99493.06;1737072;82;21179;-40
2021/04/01 06:34:00;;;;;;;30.43;23.57;;;;;;;12.19;70.94;99486.73;1708030;82;21190;-40
2021/04/01 06:36:28;;;;;;;32.13;23.10;;;;;;;12.26;71.07;99478.66;1730649;81;21511;-40
2021/04/01 06:38:56;;;;;;;31.48;23.92;;;;;;;12.38;70.49;99478.46;1763096;81;21158;-40
2021/04/01 06:41:29;;;;;;;29.02;23.50;;;;;;;12.51;69.90;99478.43;1745373;82;21000;-41
2021/04/01 06:44:21;;;;;;;32.35;23.65;;;;;;;12.59;70.08;99476.00;1732129;82;21207;-40
2021/04/01 06:46:49;;;;;;;26.02;21.30;;;;;;;12.69;69.52;99473.78;1749169;82;21555;-41
2021/04/01 06:52:10;;;;;;;29.57;22.95;;;;;;;12.95;68.76;99470.98;1855223;75;23339;-40
2021/04/01 06:55:22;;;;;;;29.30;23.52;;;;;;;13.00;68.50;99463.27;1825473;78;21635;-40
2021/04/01 06:57:36;;;;;;;25.80;20.35;;;;;;;13.08;68.53;99467.63;1822202;77;22334;-40
2021/04/01 07:00:16;;;;;;;28.98;21.55;;;;;;;13.20;68.07;99466.63;1776071;80;21031;-40
2021/04/01 07:02:53;;;;;;;27.52;21.57;;;;;;;13.34;67.57;99463.25;1821394;78;21046;-41
2021/04/01 07:05:38;;;;;;;26.07;20.65;;;;;;;13.48;66.98;99455.98;1813196;78;22877;-41
2021/04/01 07:08:08;;;;;;;29.40;23.38;;;;;;;13.51;66.46;99465.94;1784891;79;21577;-41
2021/04/01 07:10:49;;;;;;;28.98;20.88;;;;;;;13.55;66.31;99467.53;1810379;78;21411;-42
2021/04/01 07:13:17;;;;;;;26.15;20.35;;;;;;;13.59;66.56;99464.83;1783560;80;21064;-40
2021/04/01 07:15:52;;;;;;;23.07;19.55;;;;;;;13.72;66.49;99461.43;1782692;80;21025;-41
2021/04/01 07:21:30;;;;;;;24.70;20.90;;;;;;;14.05;65.18;99463.22;1796464;78;21158;-41
2021/04/01 07:32:35;;;;;;;23.95;18.87;;;;;;;14.41;63.70;99451.19;1779451;79;21125;-41
2021/04/01 07:48:45;;;;;;;24.63;19.80;;;;;;;14.59;63.04;99441.12;1813360;78;21122;-41
2021/04/01 07:51:57;;;;;;;30.43;19.70;;;;;;;14.63;62.85;99439.19;1786364;79;21189;-41
2021/04/01 07:54:17;;;;;;;27.35;20.65;;;;;;;14.77;62.79;99440.60;1815718;78;21007;-41
2021/04/01 07:56:58;;;;;;;27.02;21.35;;;;;;;14.89;62.08;99430.70;1788868;78;21707;-41
2021/04/01 07:59:32;;;;;;;25.57;20.05;;;;;;;15.01;61.74;99426.23;1791036;79;21168;-41
2021/04/01 08:02:24;;;;;;;26.50;20.77;;;;;;;15.17;61.94;99428.61;1807081;78;21167;-41
2021/04/01 08:04:42;;;;;;;23.22;19.25;;;;;;;15.32;60.59;99428.05;1782579;79;21335;-41
2021/04/01 08:07:13;;;;;;;24.82;20.48;;;;;;;15.40;59.91;99422.77;1797763;79;21194;-41
2021/04/01 08:09:49;;;;;;;22.20;18.92;;;;;;;15.49;60.17;99421.82;1773765;79;21175;-41
2021/04/01 08:12:29;;;;;;;25.37;20.80;;;;;;;15.65;59.96;99416.75;1773098;79;20985;-41
2021/04/01 08:15:09;;;;;;;23.85;20.20;;;;;;;15.81;59.28;99406.20;1782636;79;21158;-41
2021/04/01 08:20:22;;;;;;;25.75;20.48;;;;;;;16.09;58.10;99406.14;1777766;79;21198;-41
2021/04/01 08:26:09;;;;;;;23.95;19.40;;;;;;;16.38;57.75;99386.30;1833804;78;22391;-41
2021/04/01 08:29:04;;;;;;;24.43;19.90;;;;;;;16.50;57.49;99387.24;1756950;81;21050;-41
2021/04/01 08:34:15;;;;;;;24.05;19.95;;;;;;;16.75;56.32;99378.91;1707840;83;21357;-41
2021/04/01 08:36:48;;;;;;;24.55;20.70;;;;;;;16.84;56.18;99373.79;1739113;82;21051;-41
2021/04/01 08:39:20;;;;;;;24.05;19.67;;;;;;;17.03;55.70;99370.34;1707356;83;21068;-41
2021/04/01 08:42:29;;;;;;;24.82;18.27;;;;;;;17.20;55.73;99363.34;1739112;82;21134;-41
2021/04/01 08:45:30;;;;;;;26.50;19.98;;;;;;;17.31;55.18;99369.53;1707970;83;21210;-42
2021/04/01 08:48:11;;;;;;;24.63;18.23;;;;;;;17.36;54.38;99371.05;1709402;82;20972;-42
2021/04/01 08:51:00;;;;;;;32.15;24.15;;;;;;;17.39;54.74;99370.23;1769110;80;21034;-41
2021/04/01 08:53:44;;;;;;;;;;;;;;;17.44;54.49;99367.06;1741134;82;21186;-41
2021/04/01 08:56:42;;;;;;;42.33;29.30;;;;;;;17.53;54.07;99361.10;1742535;82;20315;-42
2021/04/01 08:59:31;;;;;;;48.08;35.30;;;;;;;17.54;54.25;99357.97;1742709;82;22269;-42
2021/04/01 09:01:59;;;;;;;61.88;42.88;;;;;;;17.72;54.12;99350.37;1769013;80;21158;-42
2021/04/01 09:04:32;;;;;;;67.20;45.78;;;;;;;17.88;53.50;99349.04;1723356;82;21618;-41
2021/04/01 09:07:10;;;;;;;68.85;48.05;;;;;;;18.02;53.40;99347.51;1722895;82;21655;-42
2021/04/01 09:09:40;;;;;;;74.58;50.30;;;;;;;18.14;52.51;99346.40;1769441;81;21094;-42
2021/04/01 09:12:27;;;;;;;68.65;48.08;;;;;;;18.27;51.86;99338.98;1743383;82;21190;-42
2021/04/01 09:15:06;;;;;;;78.90;53.58;;;;;;;18.36;51.42;99335.13;1743096;82;22135;-42
2021/04/01 09:17:36;;;;;;;64.97;44.83;;;;;;;18.46;50.85;99340.49;1769538;81;21158;-42
2021/04/01 09:20:13;;;;;;;67.12;44.35;;;;;;;18.45;51.07;99322.45;1743256;82;21593;-42
2021/04/01 09:22:49;;;;;;;67.47;45.60;;;;;;;18.52;51.50;99327.09;1742938;82;21123;-42
2021/04/01 09:25:18;;;;;;;78.78;56.23;;;;;;;18.71;50.24;99321.55;1734662;82;21205;-41
2021/04/01 09:27:59;;;;;;;69.03;48.67;;;;;;;18.86;50.06;99316.81;1758919;81;21397;-42
2021/04/01 09:30:27;;;;;;;59.90;40.90;;;;;;;18.99;49.56;99318.37;1716753;82;21827;-42
2021/04/01 09:33:00;;;;;;;53.75;38.17;;;;;;;19.09;49.40;99303.69;1796838;79;21692;-42
2021/04/01 09:35:29;;;;;;;51.42;35.52;;;;;;;19.23;48.64;99308.94;1788536;79;21095;-42
2021/04/01 09:38:06;;;;;;;46.45;33.75;;;;;;;19.39;48.44;99311.03;1764764;80;21336;-42
2021/04/01 09:40:41;;;;;;;32.98;24.80;;;;;;;19.43;48.15;99300.15;1764628;81;20992;-42
2021/04/01 09:43:19;;;;;;;39.48;28.98;;;;;;;19.58;47.84;99291.07;1768783;79;20988;-42
2021/04/01 09:45:48;;;;;;;40.98;30.10;;;;;;;19.74;47.41;99286.26;1796295;79;21147;-42
2021/04/01 09:48:30;;;;;;;43.98;31.10;;;;;;;19.91;47.06;99289.25;1796263;79;21139;-42
2021/04/01 09:51:00;;;;;;;50.58;33.48;;;;;;;20.13;46.15;99286.25;1796209;79;21363;-42
2021/04/01 09:53:29;;;;;;;42.45;29.48;;;;;;;20.29;44.92;99279.40;1796156;79;21021;-42
2021/04/01 09:55:58;;;;;;;33.45;24.02;;;;;;;20.47;44.01;99274.14;1796504;79;25908;-42
2021/04/01 09:58:39;;;;;;;29.45;21.60;;;;;;;20.61;43.05;99273.81;1796189;79;21143;-42
2021/04/01 10:04:23;;;;;;;24.43;17.52;;;;;;;20.71;42.48;99265.91;1795812;79;21496;-42
2021/04/01 10:06:51;;;;;;;24.80;17.35;;;;;;;20.81;41.73;99257.39;1796182;79;20965;-42
2021/04/01 10:09:23;;;;;;;20.43;14.33;;;;;;;20.94;41.59;99265.73;1796298;79;21179;-42
2021/04/01 10:12:07;;;;;;;17.02;14.40;;;;;;;21.10;40.27;99253.92;1796164;79;21367;-42
2021/04/01 10:14:37;;;;;;;21.55;16.60;;;;;;;21.30;40.25;99255.22;1774186;79;21518;-42
2021/04/01 10:17:10;;;;;;;19.48;15.18;;;;;;;21.43;41.30;99243.63;1689142;81;21399;-42
2021/04/01 10:19:49;;;;;;;18.12;13.53;;;;;;;21.60;40.39;99239.00;1744223;81;21055;-42
2021/04/01 10:22:32;;;;;;;16.52;12.23;;;;;;;21.84;39.49;99232.60;1743530;81;21005;-42
2021/04/01 10:25:18;;;;;;;13.83;9.63;;;;;;;21.99;38.38;99232.39;1767506;80;21162;-42
2021/04/01 10:27:50;;;;;;;12.37;8.65;;;;;;;22.02;36.83;99238.44;1770444;81;21209;-42
2021/04/01 10:30:13;;;;;;;;;;;;;;;21.86;36.94;99226.05;1772654;81;21628;-42
2021/04/01 10:32:44;;;;;;;8.67;6.27;;;;;;;21.71;35.54;99227.67;1771307;81;20164;-42
2021/04/01 10:35:13;;;;;;;10.23;6.53;;;;;;;21.52;35.24;99218.34;1770905;81;21047;-42
2021/04/01 10:37:49;;;;;;;9.77;6.37;;;;;;;21.54;35.49;99210.39;1771182;80;21186;-42
2021/04/01 10:40:20;;;;;;;10.35;7.25;;;;;;;21.42;35.77;99207.00;1770954;80;21787;-42
2021/04/01 10:42:52;;;;;;;8.38;6.10;;;;;;;21.15;35.52;99204.59;1771057;81;21381;-42
2021/04/01 10:45:21;;;;;;;10.43;6.67;;;;;;;20.89;36.28;99196.58;1769418;81;21166;-42
2021/04/01 10:48:23;;;;;;;8.83;6.45;;;;;;;20.84;36.38;99195.13;1770867;81;21570;-42
2021/04/01 10:50:53;;;;;;;10.95;6.30;;;;;;;21.00;35.65;99190.20;1771024;81;21115;-42
2021/04/01 10:53:23;;;;;;;7.47;5.62;;;;;;;21.21;36.05;99178.02;1770997;80;21470;-42
2021/04/01 10:55:52;;;;;;;7.90;5.85;;;;;;;21.43;35.32;99187.09;1771018;80;21139;-42
2021/04/01 10:58:20;;;;;;;13.47;6.63;;;;;;;21.52;34.75;99178.35;1771159;81;21039;-42
2021/04/01 11:00:54;;;;;;;8.58;5.92;;;;;;;21.52;35.11;99172.05;1770915;81;21325;-42
2021/04/01 11:03:32;;;;;;;9.55;6.15;;;;;;;21.50;34.63;99175.24;1770982;81;21155;-42
2021/04/01 11:06:03;;;;;;;7.78;5.50;;;;;;;21.61;35.14;99159.77;1771003;81;21135;-42
2021/04/01 11:08:46;;;;;;;8.60;6.70;;;;;;;21.79;34.96;99168.30;1770861;80;21036;-42
2021/04/01 11:11:15;;;;;;;10.00;7.45;;;;;;;21.99;35.06;99167.52;1770877;80;21135;-42
2021/04/01 11:13:46;;;;;;;11.30;7.45;;;;;;;22.20;34.31;99163.94;1771049;81;21138;-42
2021/04/01 11:16:15;;;;;;;9.80;6.75;;;;;;;22.32;33.94;99163.92;1770775;81;21182;-42
2021/04/01 11:18:47;;;;;;;;;;;;;;;22.44;33.95;99156.25;1773702;80;20973;-43
2021/04/01 11:21:17;;;;;;;9.18;6.62;;;;;;;22.68;33.91;99149.73;1771210;81;21320;-42
2021/04/01 11:23:46;;;;;;;13.05;7.53;;;;;;;22.77;32.15;99147.08;1770936;81;21150;-43
2021/04/01 11:26:14;;;;;;;8.20;6.10;;;;;;;22.79;33.32;99141.11;1765773;80;21167;-43
2021/04/01 11:28:50;;;;;;;11.15;7.55;;;;;;;22.93;34.09;99140.02;1764650;81;21039;-43
2021/04/01 11:31:26;;;;;;;9.18;7.05;;;;;;;23.08;32.57;99122.92;1764326;81;21169;-43
2021/04/01 11:33:57;;;;;;;9.85;7.65;;;;;;;23.13;32.79;99137.55;1764842;81;21357;-42
2021/04/01 11:36:37;;;;;;;9.68;7.42;;;;;;;23.07;33.24;99131.05;1764606;80;21382;-42
2021/04/01 11:38:59;;;;;;;11.45;7.58;;;;;;;22.95;33.60;99121.58;1763061;81;21184;-43
2021/04/01 11:41:29;;;;;;;9.50;7.25;;;;;;;22.87;33.72;99116.92;1762090;81;21107;-43
2021/04/01 11:43:58;;;;;;;9.80;7.50;;;;;;;22.95;33.26;99116.82;1765073;79;21159;-42
2021/04/01 11:46:30;;;;;;;9.43;7.17;;;;;;;22.86;33.58;99117.36;1764698;80;21622;-42
2021/04/01 11:49:00;;;;;;;9.18;6.92;;;;;;;22.54;33.13;99108.77;1743937;81;21040;-42
2021/04/01 11:51:33;;;;;;;9.23;6.72;;;;;;;22.35;33.65;99103.67;1764794;80;21623;-42
2021/04/01 11:54:08;;;;;;;9.53;6.62;;;;;;;22.39;33.10;99103.55;1764797;81;21119;-42
2021/04/01 11:56:38;;;;;;;9.60;7.33;;;;;;;22.37;33.13;99102.59;1764651;80;21163;-42
2021/04/01 11:59:11;;;;;;;9.13;6.03;;;;;;;22.27;33.11;99091.92;1764656;80;21342;-42
2021/04/01 12:02:04;;;;;;;9.50;7.08;;;;;;;22.34;33.58;99098.58;1692757;84;21185;-43
2021/04/01 12:04:32;;;;;;;8.70;6.70;;;;;;;22.56;32.46;99086.97;1697362;84;21629;-42
2021/04/01 12:06:59;;;;;;;9.03;6.12;;;;;;;22.77;33.10;99082.12;1707807;84;21178;-43
2021/04/01 12:09:27;;;;;;;9.40;6.62;;;;;;;22.90;32.23;99067.63;1764870;81;21150;-43
2021/04/01 12:11:56;;;;;;;8.15;5.87;;;;;;;23.08;32.06;99066.23;1764657;81;21187;-43
2021/04/01 12:14:35;;;;;;;7.37;5.55;;;;;;;23.22;30.87;99051.88;1764758;81;21771;-43
2021/04/01 12:17:06;;;;;;;9.33;5.62;;;;;;;23.29;29.40;99058.52;1764863;81;21182;-43
2021/04/01 12:19:35;;;;;;;8.58;5.60;;;;;;;23.37;30.74;99054.27;1764648;81;21040;-43
2021/04/01 12:22:08;;;;;;;6.85;5.45;;;;;;;23.49;30.97;99048.50;1744088;81;21135;-43
2021/04/01 12:24:37;;;;;;;8.53;5.80;;;;;;;23.58;31.51;99053.47;1765154;79;21200;-43
2021/04/01 12:27:06;;;;;;;9.68;5.87;;;;;;;23.77;30.25;99044.02;1764944;81;21166;-43
2021/04/01 12:29:45;;;;;;;11.15;5.95;;;;;;;24.33;29.98;99041.57;1764900;80;21586;-43
2021/04/01 12:32:13;;;;;;;9.15;5.95;;;;;;;24.33;29.98;99041.57;1764616;81;21624;-43
2021/04/01 12:34:41;;;;;;;10.32;6.90;;;;;;;24.45;29.56;99036.48;1764744;81;21557;-43
2021/04/01 12:37:16;;;;;;;8.58;6.50;;;;;;;24.42;29.62;99026.34;1764830;80;21195;-43
2021/04/01 12:39:44;;;;;;;8.45;5.78;;;;;;;24.41;29.89;99023.41;1764703;81;20992;-42
2021/04/01 12:42:12;;;;;;;8.13;5.50;;;;;;;24.53;28.76;99024.50;1773413;78;21092;-43
2021/04/01 12:44:43;;;;;;;8.10;6.25;;;;;;;24.68;29.47;99020.66;1796089;79;21179;-43
2021/04/01 12:47:21;;;;;;;8.10;6.08;;;;;;;24.84;29.31;99018.77;1796382;79;21515;-43
2021/04/01 12:49:49;;;;;;;9.73;6.28;;;;;;;24.94;29.33;99014.78;1796157;79;21402;-42
2021/04/01 12:52:17;;;;;;;11.43;7.67;;;;;;;24.94;29.44;99017.55;1796082;79;20961;-43
2021/04/01 12:54:50;;;;;;;12.47;6.55;;;;;;;24.90;29.35;99007.24;1796335;79;21551;-43
2021/04/01 12:57:20;;;;;;;7.87;6.22;;;;;;;24.78;28.95;99002.63;1796082;79;20969;-43
2021/04/01 12:59:54;;;;;;;9.88;6.58;;;;;;;24.63;29.08;99001.09;1792061;79;21162;-43
2021/04/01 13:02:24;;;;;;;9.08;6.28;;;;;;;24.61;29.39;98984.14;1774892;79;21360;-42
2021/04/01 13:04:56;;;;;;;10.60;6.78;;;;;;;24.46;30.06;98945.81;1796271;79;21858;-43